createdAt,value
2018-03-22T17:56:07.670Z,84.16
2018-03-22T17:56:58.023Z,84.32
2018-03-22T17:57:47.192Z,84.41
2018-03-22T17:58:36.248Z,84.93
2018-03-22T17:59:25.390Z,84.50
2018-03-22T18:00:14.468Z,84.78
2018-03-22T18:01:03.557Z,85.26
2018-03-22T18:01:52.661Z,84.88
2018-03-22T18:02:41.740Z,84.52
2018-03-22T18:03:30.869Z,83.15
2018-03-22T18:04:19.928Z,83.39
2018-03-22T18:05:08.992Z,82.88
2018-03-22T18:05:58.102Z,83.51
2018-03-22T18:06:47.162Z,84.15
2018-03-22T18:07:36.595Z,83.85
2018-03-22T18:08:25.657Z,83.61
2018-03-22T18:09:14.785Z,83.50
2018-03-22T18:10:03.943Z,82.97
2018-03-22T18:10:53.049Z,83.45
2018-03-22T18:11:42.180Z,83.05
2018-03-22T18:12:31.790Z,83.99
2018-03-22T18:13:20.958Z,84.27
2018-03-22T18:14:10.341Z,84.96
2018-03-22T18:14:59.751Z,85.06
2018-03-22T18:15:48.932Z,84.98
2018-03-22T18:16:38.382Z,85.29
2018-03-22T18:17:27.765Z,85.06
2018-03-22T18:18:17.373Z,84.53
2018-03-22T18:19:06.485Z,83.92
2018-03-22T18:19:55.631Z,83.21
2018-03-22T18:20:44.705Z,84.58
2018-03-22T18:21:33.758Z,83.84
2018-03-22T18:22:22.901Z,84.23
2018-03-22T18:23:12.001Z,83.80
2018-03-22T18:24:01.241Z,84.40
2018-03-22T18:24:50.356Z,85.08
2018-03-22T18:25:39.418Z,84.46
2018-03-22T18:26:28.494Z,85.45
2018-03-22T18:27:17.567Z,82.61
2018-03-22T18:28:06.675Z,82.78
2018-03-22T18:28:55.746Z,82.42
2018-03-22T18:29:44.819Z,83.44
2018-03-22T18:30:33.872Z,83.97
2018-03-22T18:31:22.922Z,84.21
2018-03-22T18:32:11.997Z,84.92
2018-03-22T18:33:01.127Z,85.39
2018-03-22T18:33:50.649Z,85.49
2018-03-22T18:34:39.767Z,86.29
2018-03-22T18:35:28.949Z,86.13
2018-03-22T18:36:17.922Z,86.55
2018-03-22T18:37:07.142Z,86.59
2018-03-22T18:37:56.271Z,85.17
2018-03-22T18:38:45.353Z,85.64
2018-03-22T18:39:34.415Z,85.42
2018-03-22T18:40:23.575Z,84.67
2018-03-22T18:41:12.651Z,85.18
2018-03-22T18:42:01.761Z,84.95
2018-03-22T18:42:50.981Z,84.65
2018-03-22T18:43:40.069Z,84.06
2018-03-22T18:44:29.134Z,84.49
2018-03-22T18:45:18.198Z,84.27
2018-03-22T18:46:07.288Z,84.03
2018-03-22T18:46:56.390Z,83.55
2018-03-22T18:47:45.486Z,83.86
2018-03-22T18:48:34.844Z,83.62
2018-03-22T18:49:23.967Z,83.27
2018-03-22T18:50:13.118Z,82.67
2018-03-22T18:51:02.220Z,82.77
2018-03-22T18:51:51.327Z,83.48
2018-03-22T18:52:40.388Z,83.44
2018-03-22T18:53:29.445Z,83.90
2018-03-22T18:54:18.497Z,83.69
2018-03-22T18:55:07.565Z,82.82
2018-03-22T18:55:56.628Z,85.63
2018-03-22T18:56:46.041Z,87.70
2018-03-22T18:57:35.154Z,85.08
2018-03-22T18:58:24.205Z,85.09
2018-03-22T18:59:13.306Z,84.47
2018-03-22T19:00:02.367Z,85.83
2018-03-22T19:00:51.457Z,83.66
2018-03-22T19:01:40.940Z,80.79
2018-03-22T19:02:30.037Z,81.23
2018-03-22T19:03:19.157Z,83.11
2018-03-22T19:04:08.323Z,82.33
2018-03-22T19:04:57.393Z,82.55
2018-03-22T19:05:46.449Z,83.55
2018-03-22T19:06:35.534Z,83.65
2018-03-22T19:07:24.585Z,82.50
2018-03-22T19:08:13.644Z,82.16
2018-03-22T19:09:02.706Z,82.57
2018-03-22T19:09:51.823Z,82.46
2018-03-22T19:10:40.878Z,83.44
2018-03-22T19:11:29.976Z,82.48
2018-03-22T19:12:19.009Z,82.51
2018-03-22T19:13:08.093Z,81.73
2018-03-22T19:13:57.159Z,81.27
2018-03-22T19:14:46.241Z,82.48
2018-03-22T19:15:35.615Z,82.24
2018-03-22T19:16:24.673Z,81.15
2018-03-22T19:17:13.730Z,81.26
2018-03-22T19:18:02.791Z,81.15
2018-03-22T19:18:51.916Z,81.22
2018-03-22T19:19:40.978Z,81.68
2018-03-22T19:20:30.034Z,81.25
2018-03-22T19:21:19.148Z,80.21
2018-03-22T19:22:08.356Z,80.67
2018-03-22T19:22:57.443Z,81.15
2018-03-22T19:23:46.526Z,80.83
2018-03-22T19:24:35.610Z,81.11
2018-03-22T19:25:24.678Z,81.55
2018-03-22T19:26:13.775Z,81.54
2018-03-22T19:27:02.879Z,82.06
2018-03-22T19:27:51.992Z,79.98
2018-03-22T19:28:41.051Z,80.18
2018-03-22T19:29:30.114Z,80.53
2018-03-22T19:30:20.112Z,81.60
2018-03-22T19:31:09.183Z,80.34
2018-03-22T19:31:58.255Z,81.60
2018-03-22T19:32:47.313Z,81.39
2018-03-22T19:33:36.418Z,82.09
2018-03-22T19:34:25.491Z,81.58
2018-03-22T19:35:14.555Z,82.27
2018-03-22T19:36:03.642Z,83.36
2018-03-22T19:36:52.716Z,82.65
2018-03-22T19:37:41.778Z,81.75
2018-03-22T19:38:30.837Z,82.46
2018-03-22T19:39:20.118Z,83.03
2018-03-22T19:40:09.176Z,83.00
2018-03-22T19:40:58.237Z,82.58
2018-03-22T19:41:47.318Z,81.87
2018-03-22T19:42:36.401Z,82.27
2018-03-22T19:43:25.565Z,82.53
2018-03-22T19:44:14.632Z,82.31
2018-03-22T19:45:03.729Z,83.14
2018-03-22T19:45:52.784Z,81.46
2018-03-22T19:46:41.871Z,81.35
2018-03-22T19:47:31.004Z,80.64
2018-03-22T19:48:20.072Z,80.87
2018-03-22T19:49:09.163Z,81.87
2018-03-22T19:49:58.230Z,81.44
2018-03-22T19:50:47.281Z,81.45
2018-03-22T19:51:36.350Z,81.27
2018-03-22T19:52:25.415Z,81.04
2018-03-22T19:53:14.526Z,82.09
2018-03-22T19:54:03.986Z,82.95
2018-03-22T19:54:54.245Z,82.80
2018-03-22T19:55:43.317Z,81.93
2018-03-22T19:56:32.383Z,82.70
2018-03-22T19:57:21.529Z,82.46
2018-03-22T19:58:10.579Z,83.05
2018-03-22T19:59:00.038Z,82.80
2018-03-22T19:59:49.120Z,82.56
2018-03-22T20:00:38.186Z,82.87
2018-03-22T20:01:27.250Z,83.09
2018-03-22T20:02:16.318Z,82.66
2018-03-22T20:03:05.495Z,82.57
2018-03-22T20:03:54.546Z,81.78
2018-03-22T20:04:43.611Z,81.24
2018-03-22T20:05:32.689Z,81.58
2018-03-22T20:06:21.811Z,81.11
2018-03-22T20:07:11.134Z,81.20
2018-03-22T20:08:14.067Z,80.42
2018-03-22T20:09:03.355Z,80.63
2018-03-22T20:09:52.516Z,81.87
2018-03-22T20:10:41.573Z,81.33
2018-03-22T20:11:30.644Z,80.34
2018-03-22T20:12:19.707Z,81.23
2018-03-22T20:13:08.771Z,82.86
2018-03-22T20:13:57.886Z,81.37
2018-03-22T20:14:46.981Z,82.27
2018-03-22T20:15:36.040Z,82.91
2018-03-22T20:16:25.094Z,82.14
2018-03-22T20:17:14.318Z,82.40
2018-03-22T20:18:03.411Z,82.16
2018-03-22T20:18:52.506Z,82.14
2018-03-22T20:19:41.564Z,81.97
2018-03-22T20:20:30.629Z,81.97
2018-03-22T20:21:19.685Z,81.87
2018-03-22T20:22:08.740Z,81.97
2018-03-22T20:22:58.779Z,81.28
2018-03-22T20:23:47.840Z,82.06
2018-03-22T20:24:36.890Z,81.34
2018-03-22T20:25:25.951Z,82.21
2018-03-22T20:26:15.018Z,82.72
2018-03-22T20:27:04.082Z,81.35
2018-03-22T20:27:53.144Z,81.79
2018-03-22T20:28:43.064Z,81.77
2018-03-22T20:29:32.403Z,81.79
2018-03-22T20:30:21.458Z,82.42
2018-03-22T20:31:10.557Z,82.96
2018-03-22T20:31:59.619Z,82.03
2018-03-22T20:32:48.725Z,81.75
2018-03-22T20:33:37.810Z,82.66
2018-03-22T20:34:26.912Z,82.53
2018-03-22T20:35:15.944Z,82.02
2018-03-22T20:36:05.121Z,79.45
2018-03-22T20:36:54.183Z,81.15
2018-03-22T20:37:43.232Z,80.13
2018-03-22T20:38:32.408Z,80.86
2018-03-22T20:39:21.480Z,81.22
2018-03-22T20:40:10.574Z,81.07
2018-03-22T20:40:59.648Z,80.77
2018-03-22T20:41:48.731Z,79.71
2018-03-22T20:42:37.798Z,80.68
2018-03-22T20:43:26.860Z,80.80
2018-03-22T20:44:15.955Z,82.07
2018-03-22T20:45:05.001Z,82.84
2018-03-22T20:45:54.093Z,82.78
2018-03-22T20:46:43.151Z,82.53
2018-03-22T20:47:32.283Z,81.86
2018-03-22T20:48:21.341Z,81.81
2018-03-22T20:49:10.406Z,81.83
2018-03-22T20:49:59.510Z,82.10
2018-03-22T20:50:48.557Z,82.14
2018-03-22T20:51:37.658Z,82.36
2018-03-22T20:52:26.731Z,81.39
2018-03-22T20:53:15.789Z,81.97
2018-03-22T20:54:04.887Z,81.94
2018-03-22T20:54:53.953Z,81.36
2018-03-22T20:55:43.108Z,81.77
2018-03-22T20:56:32.171Z,82.54
2018-03-22T20:57:21.233Z,81.12
2018-03-22T20:58:10.293Z,81.82
2018-03-22T20:58:59.349Z,81.56
2018-03-22T20:59:48.477Z,81.31
2018-03-22T21:00:37.538Z,80.87
2018-03-22T21:01:26.615Z,81.07
2018-03-22T21:02:15.695Z,80.84
2018-03-22T21:03:04.774Z,81.43
2018-03-22T21:03:53.972Z,80.72
2018-03-22T21:04:43.382Z,81.14
2018-03-22T21:05:32.439Z,80.89
2018-03-22T21:06:21.512Z,81.06
2018-03-22T21:07:10.561Z,81.81
2018-03-22T21:07:59.622Z,81.07
2018-03-22T21:08:48.714Z,81.24
2018-03-22T21:09:37.813Z,81.31
2018-03-22T21:10:26.859Z,80.53
2018-03-22T21:11:15.912Z,80.94
2018-03-22T21:12:04.978Z,81.74
2018-03-22T21:12:54.031Z,81.75
2018-03-22T21:13:43.084Z,82.01
2018-03-22T21:14:32.129Z,81.30
2018-03-22T21:15:21.405Z,81.53
2018-03-22T21:16:10.461Z,80.22
2018-03-22T21:16:59.522Z,80.18
2018-03-22T21:17:48.591Z,80.42
2018-03-22T21:18:37.642Z,81.02
2018-03-22T21:19:26.698Z,81.63
2018-03-22T21:20:15.807Z,81.96
2018-03-22T21:21:04.870Z,81.80
2018-03-22T21:21:53.976Z,82.14
2018-03-22T21:22:43.026Z,82.23
2018-03-22T21:23:32.091Z,82.62
2018-03-22T21:24:21.146Z,83.07
2018-03-22T21:25:10.204Z,83.17
2018-03-22T21:25:59.273Z,81.81
2018-03-22T21:26:48.367Z,81.90
2018-03-22T21:27:37.513Z,81.83
2018-03-22T21:28:26.560Z,81.76
2018-03-22T21:29:15.652Z,81.27
2018-03-22T21:30:04.762Z,80.28
2018-03-22T21:30:53.822Z,80.55
2018-03-22T21:31:42.869Z,80.66
2018-03-22T21:32:31.923Z,80.08
2018-03-22T21:33:21.099Z,81.42
2018-03-22T21:34:10.168Z,81.25
2018-03-22T21:34:59.216Z,80.45
2018-03-22T21:35:48.272Z,81.00
2018-03-22T21:36:37.365Z,81.34
2018-03-22T21:37:26.420Z,81.80
2018-03-22T21:38:15.464Z,81.93
2018-03-22T21:39:04.648Z,81.81
2018-03-22T21:39:53.704Z,81.85
2018-03-22T21:40:42.750Z,81.83
2018-03-22T21:41:31.809Z,81.22
2018-03-22T21:42:20.864Z,81.15
2018-03-22T21:43:09.921Z,80.44
2018-03-22T21:44:10.883Z,81.05
2018-03-22T21:44:59.973Z,81.60
2018-03-22T21:45:49.083Z,81.98
2018-03-22T21:46:38.162Z,82.74
2018-03-22T21:47:32.236Z,83.15
2018-03-22T21:48:21.304Z,82.62
2018-03-22T21:49:10.391Z,82.79
2018-03-22T21:49:59.541Z,83.38
2018-03-22T21:50:49.439Z,83.25
2018-03-22T21:51:38.598Z,84.04
2018-03-22T21:52:39.501Z,82.50
2018-03-22T21:53:28.564Z,81.97
2018-03-22T21:54:17.612Z,82.04
2018-03-22T21:55:06.719Z,82.13
2018-03-22T21:55:55.777Z,82.50
2018-03-22T21:56:44.838Z,82.83
2018-03-22T21:57:33.897Z,82.94
2018-03-22T21:58:22.945Z,82.45
2018-03-22T21:59:12.005Z,82.10
2018-03-22T22:00:01.090Z,82.91
2018-03-22T22:00:50.244Z,83.57
2018-03-22T22:01:39.326Z,83.79
2018-03-22T22:02:28.385Z,83.84
2018-03-22T22:03:17.449Z,83.82
2018-03-22T22:04:06.509Z,84.33
2018-03-22T22:04:55.593Z,84.49
2018-03-22T22:05:44.658Z,84.08
2018-03-22T22:06:33.864Z,84.00
2018-03-22T22:07:22.945Z,83.74
2018-03-22T22:08:12.001Z,83.62
2018-03-22T22:09:01.065Z,82.42
2018-03-22T22:09:50.112Z,82.27
2018-03-22T22:10:39.210Z,82.22
2018-03-22T22:11:28.282Z,81.18
2018-03-22T22:12:17.333Z,81.87
2018-03-22T22:13:06.372Z,82.01
2018-03-22T22:13:55.427Z,82.86
2018-03-22T22:14:44.472Z,82.27
2018-03-22T22:15:33.642Z,82.28
2018-03-22T22:16:22.689Z,82.11
2018-03-22T22:17:11.748Z,82.65
2018-03-22T22:18:00.805Z,82.61
2018-03-22T22:18:49.860Z,84.31
2018-03-22T22:19:38.910Z,82.70
2018-03-22T22:20:27.966Z,82.82
2018-03-22T22:21:17.053Z,82.59
2018-03-22T22:22:06.097Z,82.75
2018-03-22T22:22:55.142Z,82.67
2018-03-22T22:23:44.184Z,82.03
2018-03-22T22:24:33.232Z,81.96
2018-03-22T22:25:22.280Z,82.35
2018-03-22T22:26:12.163Z,81.72
2018-03-22T22:27:01.287Z,81.61
2018-03-22T22:27:50.321Z,82.16
2018-03-22T22:28:39.369Z,82.16
2018-03-22T22:29:28.410Z,82.24
2018-03-22T22:30:17.478Z,82.42
2018-03-22T22:31:06.527Z,81.94
2018-03-22T22:31:55.582Z,82.11
2018-03-22T22:32:44.821Z,82.32
2018-03-22T22:33:33.879Z,82.76
2018-03-22T22:34:22.924Z,82.31
2018-03-22T22:35:11.969Z,82.11
2018-03-22T22:36:01.036Z,82.42
2018-03-22T22:36:50.097Z,82.39
2018-03-22T22:37:39.142Z,82.60
2018-03-22T22:38:28.346Z,82.30
2018-03-22T22:39:17.420Z,82.35
2018-03-22T22:40:06.470Z,83.10
2018-03-22T22:40:55.513Z,83.52
2018-03-22T22:41:44.561Z,82.58
2018-03-22T22:42:33.616Z,82.76
2018-03-22T22:43:22.671Z,82.50
2018-03-22T22:44:11.773Z,82.59
2018-03-22T22:45:00.827Z,82.54
2018-03-22T22:45:49.878Z,82.95
2018-03-22T22:46:38.930Z,83.09
2018-03-22T22:47:27.988Z,82.84
2018-03-22T22:48:17.044Z,82.33
2018-03-22T22:49:06.101Z,82.65
2018-03-22T22:49:55.194Z,82.86
2018-03-22T22:50:44.252Z,83.21
2018-03-22T22:51:33.490Z,83.64
2018-03-22T22:52:22.540Z,82.45
2018-03-22T22:53:11.590Z,82.62
2018-03-22T22:54:00.636Z,83.41
2018-03-22T22:54:49.687Z,84.09
2018-03-22T22:55:38.924Z,84.35
2018-03-22T22:56:27.971Z,84.17
2018-03-22T22:57:17.023Z,84.51
2018-03-22T22:58:06.075Z,84.91
2018-03-22T22:58:55.136Z,84.64
2018-03-22T22:59:44.181Z,84.68
2018-03-22T23:00:33.230Z,84.71
2018-03-22T23:01:22.444Z,84.50
2018-03-22T23:02:11.488Z,85.46
2018-03-22T23:03:00.651Z,84.57
2018-03-22T23:03:49.705Z,84.45
2018-03-22T23:04:38.749Z,84.59
2018-03-22T23:05:27.824Z,84.46
2018-03-22T23:06:16.982Z,84.52
2018-03-22T23:07:06.055Z,85.01
2018-03-22T23:07:55.100Z,85.60
2018-03-22T23:08:44.165Z,85.75
2018-03-22T23:09:33.229Z,85.61
2018-03-22T23:10:22.376Z,85.27
2018-03-22T23:11:11.422Z,85.96
2018-03-22T23:12:00.472Z,85.75
2018-03-22T23:12:49.516Z,86.24
2018-03-22T23:13:38.561Z,86.17
2018-03-22T23:14:27.613Z,85.93
2018-03-22T23:15:16.663Z,86.41
2018-03-22T23:16:05.778Z,86.73
2018-03-22T23:16:54.826Z,86.85
2018-03-22T23:17:43.872Z,87.12
2018-03-22T23:18:32.948Z,86.80
2018-03-22T23:19:21.995Z,86.05
2018-03-22T23:20:11.085Z,86.04
2018-03-22T23:21:00.139Z,86.11
2018-03-22T23:21:49.186Z,86.31
2018-03-22T23:22:38.234Z,86.15
2018-03-22T23:23:27.290Z,86.52
2018-03-22T23:24:16.342Z,86.16
2018-03-22T23:25:05.512Z,86.50
2018-03-22T23:25:54.589Z,86.30
2018-03-22T23:26:43.638Z,85.73
2018-03-22T23:27:32.678Z,84.87
2018-03-22T23:28:21.882Z,85.07
2018-03-22T23:29:10.918Z,85.17
2018-03-22T23:29:59.968Z,85.07
2018-03-22T23:30:49.104Z,85.45
2018-03-22T23:31:38.148Z,85.43
2018-03-22T23:32:27.200Z,85.31
2018-03-22T23:33:16.268Z,85.37
2018-03-22T23:34:05.379Z,85.30
2018-03-22T23:34:54.627Z,85.41
2018-03-22T23:35:43.699Z,85.48
2018-03-22T23:36:32.781Z,85.08
2018-03-22T23:37:21.838Z,84.78
2018-03-22T23:38:10.891Z,84.96
2018-03-22T23:39:00.035Z,84.43
2018-03-22T23:39:49.096Z,84.37
2018-03-22T23:40:38.140Z,84.18
2018-03-22T23:41:27.190Z,84.56
2018-03-22T23:42:16.250Z,84.43
2018-03-22T23:43:05.532Z,83.93
2018-03-22T23:43:54.578Z,83.39
2018-03-22T23:44:43.702Z,82.99
2018-03-22T23:45:32.752Z,83.48
2018-03-22T23:46:21.793Z,83.92
2018-03-22T23:47:10.876Z,83.41
2018-03-22T23:47:59.923Z,83.81
2018-03-22T23:48:48.961Z,83.73
2018-03-22T23:49:38.041Z,84.06
2018-03-22T23:50:27.120Z,83.90
2018-03-22T23:51:16.161Z,84.00
2018-03-22T23:52:05.197Z,83.78
2018-03-22T23:52:54.285Z,83.65
2018-03-22T23:53:43.342Z,82.73
2018-03-22T23:54:32.400Z,82.47
2018-03-22T23:55:21.433Z,83.06
2018-03-22T23:56:10.484Z,83.03
2018-03-22T23:56:59.519Z,83.21
2018-03-22T23:57:48.550Z,83.79
2018-03-22T23:58:37.767Z,83.56
2018-03-22T23:59:26.818Z,83.43
